Time;durP1;ratioP1;P1;durP2;ratioP2;P2;SDS_P1;SDS_P2;PMS_P1;PMS_P2;Temp;Humidity;BMP_temperature;BMP_pressure;BME280_temperature;BME280_humidity;BME280_pressure;Samples;Min_cycle;Max_cycle;Signal;HPM_P1;HPM_P2
2023/05/12 00:00:34;;;;;;;3.70;2.20;;;17.80;99.90;;;;;;5074614;28;22363;-71
2023/05/12 00:03:02;;;;;;;3.17;1.97;;;17.70;99.90;;;;;;5063753;28;20625;-71
2023/05/12 00:05:29;;;;;;;3.20;2.07;;;17.60;99.90;;;;;;5055258;28;20194;-71
2023/05/12 00:07:55;;;;;;;5.57;2.30;;;17.60;99.90;;;;;;5059715;28;20579;-71
2023/05/12 00:10:21;;;;;;;3.07;2.00;;;17.60;99.90;;;;;;5063681;28;20211;-71
2023/05/12 00:12:48;;;;;;;3.53;2.10;;;17.30;99.90;;;;;;5081800;28;20293;-71
2023/05/12 00:15:14;;;;;;;4.90;2.30;;;17.30;99.90;;;;;;5066021;28;20708;-71
2023/05/12 00:17:41;;;;;;;2.60;2.30;;;17.20;99.90;;;;;;5060977;28;20996;-71
2023/05/12 00:20:08;;;;;;;3.00;2.40;;;17.10;99.90;;;;;;5069206;28;20206;-71
2023/05/12 00:22:34;;;;;;;4.10;2.37;;;17.00;99.90;;;;;;5063402;28;20191;-71
2023/05/12 00:25:00;;;;;;;4.23;2.57;;;16.90;99.90;;;;;;5066791;28;20191;-71
2023/05/12 00:27:28;;;;;;;4.57;2.53;;;16.80;99.90;;;;;;5061881;28;20733;-71
2023/05/12 00:29:54;;;;;;;4.80;2.70;;;16.70;99.90;;;;;;5062509;28;20225;-70
2023/05/12 00:32:21;;;;;;;5.03;2.60;;;16.80;99.90;;;;;;5062472;28;20255;-71
2023/05/12 00:34:49;;;;;;;3.43;1.70;;;16.80;99.90;;;;;;5057577;28;20203;-70
2023/05/12 00:37:16;;;;;;;3.57;1.70;;;16.90;99.90;;;;;;5057576;28;20278;-71
2023/05/12 00:39:42;;;;;;;4.67;2.00;;;17.00;99.90;;;;;;5083357;28;20220;-71
2023/05/12 00:42:10;;;;;;;2.77;1.70;;;17.00;99.90;;;;;;5056416;28;20262;-71
2023/05/12 00:44:37;;;;;;;5.87;1.80;;;17.00;99.90;;;;;;5048997;28;20224;-71
2023/05/12 00:47:04;;;;;;;1.93;1.50;;;17.00;99.90;;;;;;5051608;28;20194;-71
2023/05/12 00:49:31;;;;;;;4.60;1.90;;;16.90;99.90;;;;;;5055483;28;20233;-71
2023/05/12 00:51:58;;;;;;;6.47;2.00;;;16.90;99.90;;;;;;5057844;28;20201;-71
2023/05/12 00:54:28;;;;;;;5.20;2.60;;;16.90;99.90;;;;;;5077584;28;20190;-71
2023/05/12 00:56:55;;;;;;;4.33;2.23;;;16.80;99.90;;;;;;5065292;28;20255;-71
2023/05/12 00:59:21;;;;;;;3.80;2.20;;;16.80;99.90;;;;;;5063485;28;20206;-71
2023/05/12 01:01:49;;;;;;;5.00;2.33;;;16.80;99.90;;;;;;5082028;28;20199;-71
2023/05/12 01:04:15;;;;;;;3.23;2.00;;;16.70;99.90;;;;;;5062109;28;20611;-71
2023/05/12 01:07:01;;;;;;;3.73;2.07;;;16.60;99.90;;;;;;5077159;28;20264;-71
2023/05/12 01:09:27;;;;;;;2.50;1.80;;;16.60;99.90;;;;;;5055742;28;20198;-71
2023/05/12 01:11:53;;;;;;;3.97;1.47;;;16.70;99.90;;;;;;5080059;28;20183;-71
2023/05/12 01:14:19;;;;;;;3.40;1.50;;;16.70;99.90;;;;;;5078776;28;20316;-72
2023/05/12 01:16:52;;;;;;;3.93;1.90;;;16.80;99.90;;;;;;5059024;28;20546;-73
2023/05/12 01:19:48;;;;;;;3.73;2.00;;;16.80;99.90;;;;;;5062322;28;20290;-72
2023/05/12 01:22:16;;;;;;;3.30;1.90;;;16.80;99.90;;;;;;5059784;28;20194;-71
2023/05/12 01:24:51;;;;;;;3.53;1.97;;;16.80;99.90;;;;;;5059844;28;20279;-71
2023/05/12 01:27:19;;;;;;;2.73;1.93;;;16.60;99.90;;;;;;5069003;28;20191;-71
2023/05/12 01:29:47;;;;;;;6.23;2.13;;;16.60;99.90;;;;;;5061709;28;20489;-71
2023/05/12 01:32:14;;;;;;;3.27;2.20;;;16.30;99.90;;;;;;5058572;28;20183;-71
2023/05/12 01:34:42;;;;;;;5.10;2.30;;;16.10;99.90;;;;;;5058296;28;20650;-71
2023/05/12 01:37:09;;;;;;;3.23;2.33;;;16.00;99.90;;;;;;5055832;28;20187;-71
2023/05/12 01:39:36;;;;;;;4.07;2.43;;;16.00;99.90;;;;;;5051726;28;20218;-71
2023/05/12 01:42:06;;;;;;;4.87;2.70;;;16.10;99.90;;;;;;5056947;28;20285;-71
2023/05/12 01:44:33;;;;;;;5.73;2.70;;;16.10;99.90;;;;;;5061462;28;20614;-71
2023/05/12 01:47:00;;;;;;;3.60;2.40;;;16.10;99.90;;;;;;5056127;28;20704;-71
2023/05/12 01:49:27;;;;;;;4.90;2.57;;;16.10;99.90;;;;;;5058022;28;20200;-72
2023/05/12 01:51:53;;;;;;;5.67;2.50;;;16.00;99.90;;;;;;5057733;28;20248;-71
2023/05/12 01:54:19;;;;;;;3.87;2.50;;;16.00;99.90;;;;;;5052332;28;20198;-71
2023/05/12 01:56:46;;;;;;;4.18;2.70;;;16.00;99.90;;;;;;5053641;28;20473;-71
2023/05/12 01:59:12;;;;;;;3.63;2.53;;;15.90;99.90;;;;;;5056229;28;20187;-71
2023/05/12 02:01:38;;;;;;;3.47;2.83;;;15.90;99.90;;;;;;5059638;28;20186;-71
2023/05/12 02:04:07;;;;;;;4.50;2.83;;;16.00;99.90;;;;;;5078786;28;20593;-71
2023/05/12 02:06:34;;;;;;;3.67;2.50;;;16.10;99.90;;;;;;5058903;28;20209;-71
2023/05/12 02:09:00;;;;;;;3.83;2.30;;;16.10;99.90;;;;;;5059571;28;20187;-71
2023/05/12 02:11:26;;;;;;;4.57;2.50;;;15.90;99.90;;;;;;5056514;28;20230;-71
2023/05/12 02:13:52;;;;;;;2.40;2.13;;;15.80;99.90;;;;;;5058431;28;20179;-71
2023/05/12 02:16:19;;;;;;;4.13;2.20;;;15.80;99.90;;;;;;5058123;28;20595;-71
2023/05/12 02:18:45;;;;;;;3.03;1.87;;;15.80;99.90;;;;;;5062620;28;20218;-72
2023/05/12 02:21:11;;;;;;;4.03;2.23;;;15.70;99.90;;;;;;5066797;28;20217;-71
2023/05/12 02:23:37;;;;;;;2.73;2.27;;;15.60;99.90;;;;;;5076957;28;20209;-71
2023/05/12 02:26:04;;;;;;;3.47;2.20;;;15.60;99.90;;;;;;5073919;28;20333;-71
2023/05/12 02:28:30;;;;;;;2.90;2.30;;;15.70;99.90;;;;;;5072310;28;20256;-71
2023/05/12 02:30:56;;;;;;;6.13;2.30;;;15.70;99.90;;;;;;5061881;28;20559;-71
2023/05/12 02:33:23;;;;;;;5.20;2.20;;;15.70;99.90;;;;;;5042002;28;20660;-71
2023/05/12 02:35:49;;;;;;;3.73;2.27;;;15.50;99.90;;;;;;5064005;28;20278;-71
2023/05/12 02:38:16;;;;;;;3.83;2.20;;;15.50;99.90;;;;;;5060329;28;20190;-71
2023/05/12 02:40:42;;;;;;;2.87;1.90;;;15.40;99.90;;;;;;5042161;28;20206;-71
2023/05/12 02:43:08;;;;;;;3.87;1.93;;;15.50;99.90;;;;;;5056583;28;20695;-71
2023/05/12 02:45:35;;;;;;;2.77;1.90;;;15.50;99.90;;;;;;5071339;28;20186;-71
2023/05/12 02:48:01;;;;;;;2.20;1.60;;;15.50;99.90;;;;;;5059972;28;20212;-71
2023/05/12 02:50:27;;;;;;;2.53;1.30;;;15.50;99.90;;;;;;5058354;28;20249;-71
2023/05/12 02:52:53;;;;;;;3.93;1.33;;;15.50;99.90;;;;;;5058629;28;20194;-71
2023/05/12 02:55:20;;;;;;;5.33;1.60;;;15.80;99.90;;;;;;5060056;28;20184;-71
2023/05/12 02:57:46;;;;;;;1.70;1.20;;;16.00;99.90;;;;;;5060247;28;20586;-71
2023/05/12 03:00:13;;;;;;;3.93;1.20;;;16.10;99.90;;;;;;5074733;28;20851;-71
2023/05/12 03:02:39;;;;;;;2.90;1.00;;;16.10;99.90;;;;;;5043843;28;20652;-71
2023/05/12 03:05:08;;;;;;;3.50;1.33;;;16.10;99.90;;;;;;5067229;28;20180;-71
2023/05/12 03:07:34;;;;;;;2.40;1.27;;;16.10;99.90;;;;;;5058858;28;20210;-71
2023/05/12 03:10:00;;;;;;;2.57;1.10;;;16.20;99.90;;;;;;5059844;28;20625;-71
2023/05/12 03:12:30;;;;;;;4.33;1.40;;;16.30;99.90;;;;;;5063166;28;20182;-71
2023/05/12 03:14:56;;;;;;;1.33;0.77;;;16.40;99.90;;;;;;5059814;28;20196;-71
2023/05/12 03:17:23;;;;;;;1.87;1.00;;;16.50;99.90;;;;;;5060309;28;20190;-72
2023/05/12 03:19:49;;;;;;;1.37;0.90;;;16.50;99.90;;;;;;5052744;28;20211;-71
2023/05/12 03:22:15;;;;;;;2.00;0.77;;;16.60;99.90;;;;;;5039141;28;20727;-71
2023/05/12 03:24:42;;;;;;;2.17;0.97;;;16.60;99.90;;;;;;5057100;28;20206;-71
2023/05/12 03:27:08;;;;;;;2.57;1.10;;;16.70;99.90;;;;;;5057931;28;20704;-71
2023/05/12 03:29:35;;;;;;;1.27;1.03;;;16.70;99.90;;;;;;5058067;28;20182;-71
2023/05/12 03:32:01;;;;;;;1.37;0.83;;;16.70;99.90;;;;;;5060050;28;20206;-71
2023/05/12 03:34:27;;;;;;;2.40;1.13;;;16.70;99.90;;;;;;5041295;28;20190;-71
2023/05/12 03:36:54;;;;;;;2.03;0.87;;;16.80;99.90;;;;;;5042612;28;20186;-71
2023/05/12 03:39:22;;;;;;;1.30;1.00;;;16.80;99.90;;;;;;5054167;28;20247;-71
2023/05/12 03:41:48;;;;;;;2.27;1.20;;;16.90;99.90;;;;;;5060496;28;20213;-71
2023/05/12 03:44:14;;;;;;;1.00;0.80;;;16.90;99.90;;;;;;5057864;28;20286;-71
2023/05/12 03:46:40;;;;;;;1.50;0.90;;;16.90;99.90;;;;;;5063803;28;20961;-71
2023/05/12 03:49:07;;;;;;;1.00;0.80;;;16.90;99.90;;;;;;5055722;28;20284;-71
2023/05/12 03:51:33;;;;;;;2.17;0.80;;;17.00;99.90;;;;;;5061077;28;20198;-71
2023/05/12 03:53:59;;;;;;;1.10;0.80;;;17.10;99.90;;;;;;5058661;28;20191;-71
2023/05/12 03:56:27;;;;;;;5.07;1.23;;;17.10;99.90;;;;;;5057754;28;20202;-71
2023/05/12 03:58:53;;;;;;;1.87;0.90;;;17.10;99.90;;;;;;5057406;28;20293;-71
2023/05/12 04:01:20;;;;;;;1.90;0.93;;;17.10;99.90;;;;;;5057714;28;20208;-71
2023/05/12 04:03:47;;;;;;;0.93;0.80;;;17.10;99.90;;;;;;5058892;28;20193;-71
2023/05/12 04:06:13;;;;;;;1.97;1.00;;;17.20;99.90;;;;;;5070483;28;20217;-71
2023/05/12 04:08:39;;;;;;;1.00;0.90;;;17.30;99.90;;;;;;5056721;28;20274;-71
2023/05/12 04:11:06;;;;;;;2.57;0.90;;;17.30;99.90;;;;;;5056322;28;20183;-71
2023/05/12 04:13:32;;;;;;;2.87;1.00;;;17.40;99.90;;;;;;5054605;28;20278;-71
2023/05/12 04:15:59;;;;;;;1.23;0.93;;;17.40;99.90;;;;;;5054879;28;20191;-71
2023/05/12 04:18:27;;;;;;;2.63;1.00;;;17.30;99.90;;;;;;5060230;28;20202;-71
2023/05/12 04:20:54;;;;;;;1.33;0.97;;;17.30;99.90;;;;;;5061462;28;20241;-72
2023/05/12 04:23:21;;;;;;;2.00;1.10;;;17.30;99.90;;;;;;5056100;28;20190;-71
2023/05/12 04:25:48;;;;;;;2.07;0.90;;;17.20;99.90;;;;;;5072631;28;20211;-71
2023/05/12 04:28:14;;;;;;;1.67;1.00;;;17.30;99.90;;;;;;5072871;28;20183;-71
2023/05/12 04:30:41;;;;;;;2.97;1.30;;;17.30;99.90;;;;;;5053875;28;20187;-71
2023/05/12 04:33:09;;;;;;;1.50;1.07;;;17.30;99.90;;;;;;5055857;28;20179;-71
2023/05/12 04:35:35;;;;;;;1.43;1.17;;;17.40;99.90;;;;;;5057777;28;20215;-71
2023/05/12 04:38:02;;;;;;;1.57;1.13;;;17.50;99.90;;;;;;5059064;28;20205;-71
2023/05/12 04:40:28;;;;;;;2.03;1.17;;;17.50;99.90;;;;;;5053634;28;20210;-71
2023/05/12 04:42:55;;;;;;;2.47;1.00;;;17.60;99.90;;;;;;5055149;28;20192;-71
2023/05/12 04:45:21;;;;;;;1.50;0.90;;;17.60;99.90;;;;;;5053125;28;20265;-71
2023/05/12 04:47:47;;;;;;;2.13;0.90;;;17.60;99.90;;;;;;5051513;28;20236;-71
2023/05/12 04:50:14;;;;;;;3.47;1.20;;;17.70;99.90;;;;;;5059181;28;20704;-71
2023/05/12 04:52:40;;;;;;;2.37;1.10;;;17.80;99.90;;;;;;5057548;28;20194;-71
2023/05/12 04:55:07;;;;;;;2.27;1.13;;;17.80;99.90;;;;;;5059119;28;20195;-71
2023/05/12 04:57:33;;;;;;;1.93;1.13;;;17.90;99.90;;;;;;5081225;28;20217;-71
2023/05/12 05:00:03;;;;;;;3.97;1.20;;;18.00;99.90;;;;;;5070521;28;21057;-72
2023/05/12 05:02:30;;;;;;;1.17;1.00;;;18.00;99.90;;;;;;5057644;28;20190;-71
2023/05/12 05:04:56;;;;;;;2.10;1.03;;;18.00;99.90;;;;;;5054875;28;20186;-71
2023/05/12 05:07:22;;;;;;;2.87;1.13;;;18.00;99.90;;;;;;5056607;28;20269;-71
2023/05/12 05:09:49;;;;;;;3.63;1.70;;;18.00;99.90;;;;;;5058102;28;20194;-71
2023/05/12 05:12:15;;;;;;;3.30;2.10;;;18.10;99.90;;;;;;5055071;28;20214;-71
2023/05/12 05:14:41;;;;;;;4.07;1.90;;;18.10;99.90;;;;;;5061917;28;20191;-71
2023/05/12 05:17:08;;;;;;;3.50;2.40;;;18.10;99.90;;;;;;5055097;28;20642;-71
2023/05/12 05:19:34;;;;;;;4.57;2.17;;;18.10;99.90;;;;;;5071017;28;20854;-71
2023/05/12 05:22:01;;;;;;;3.80;2.20;;;18.20;99.90;;;;;;5055822;28;20189;-72
2023/05/12 05:24:27;;;;;;;5.43;2.47;;;18.10;99.90;;;;;;5074452;28;20226;-71
2023/05/12 05:26:53;;;;;;;4.20;2.40;;;18.20;99.90;;;;;;5058124;28;20920;-71
2023/05/12 05:29:19;;;;;;;4.47;2.67;;;18.20;99.90;;;;;;5057004;28;20250;-71
2023/05/12 05:31:46;;;;;;;4.13;2.40;;;18.30;99.90;;;;;;5058444;28;21002;-72
2023/05/12 05:34:12;;;;;;;4.40;2.00;;;18.40;99.90;;;;;;5054621;28;20204;-71
2023/05/12 05:36:38;;;;;;;2.77;2.20;;;18.50;99.90;;;;;;5071156;28;21072;-71
2023/05/12 05:39:05;;;;;;;4.77;2.50;;;18.50;99.90;;;;;;5056220;28;20537;-71
2023/05/12 05:41:31;;;;;;;3.27;2.10;;;18.60;99.90;;;;;;5058323;28;20226;-71
2023/05/12 05:43:57;;;;;;;5.90;2.27;;;18.70;99.90;;;;;;5040407;28;20935;-71
2023/05/12 05:46:24;;;;;;;4.77;2.10;;;18.70;99.90;;;;;;5053556;28;20774;-72
2023/05/12 05:48:50;;;;;;;3.47;2.37;;;18.80;99.90;;;;;;5056127;28;20201;-72
2023/05/12 05:51:16;;;;;;;4.47;2.60;;;18.90;99.90;;;;;;5059675;28;20187;-72
2023/05/12 05:53:43;;;;;;;4.93;2.43;;;18.90;99.90;;;;;;5059215;28;21342;-71
2023/05/12 05:56:09;;;;;;;3.10;2.10;;;19.00;99.90;;;;;;5075972;28;20554;-72
2023/05/12 05:58:35;;;;;;;3.43;2.00;;;19.00;99.90;;;;;;5055617;28;20840;-71
2023/05/12 06:01:01;;;;;;;3.83;2.20;;;19.00;99.90;;;;;;5056184;28;20195;-72
2023/05/12 06:03:28;;;;;;;3.53;2.00;;;19.10;99.90;;;;;;5073583;28;20292;-72
2023/05/12 06:05:54;;;;;;;3.83;2.27;;;19.10;99.90;;;;;;5064355;28;20195;-71
2023/05/12 06:08:20;;;;;;;3.03;2.20;;;19.20;99.90;;;;;;5068630;28;20267;-72
2023/05/12 06:10:46;;;;;;;5.53;2.67;;;19.30;99.90;;;;;;5065150;28;20193;-71
2023/05/12 06:13:13;;;;;;;9.00;3.03;;;19.50;99.90;;;;;;5074096;28;20191;-71
2023/05/12 06:15:39;;;;;;;3.43;2.33;;;19.60;99.90;;;;;;5055300;28;20191;-72
2023/05/12 06:18:05;;;;;;;5.90;2.70;;;19.70;99.90;;;;;;5058568;28;20211;-71
2023/05/12 06:20:32;;;;;;;5.13;3.13;;;19.80;99.90;;;;;;5057638;28;20269;-71
2023/05/12 06:22:58;;;;;;;5.40;3.40;;;20.00;99.90;;;;;;5059435;28;20248;-71
2023/05/12 06:25:25;;;;;;;5.90;3.20;;;20.00;99.90;;;;;;5059551;28;20258;-71
2023/05/12 06:27:52;;;;;;;6.23;2.93;;;20.10;99.90;;;;;;5049264;28;20183;-71
2023/05/12 06:30:18;;;;;;;5.50;3.17;;;20.10;99.90;;;;;;5068503;28;20219;-71
2023/05/12 06:32:44;;;;;;;5.50;3.13;;;20.10;99.90;;;;;;5039369;28;20187;-71
2023/05/12 06:35:11;;;;;;;6.20;3.17;;;20.20;99.90;;;;;;5049258;28;20290;-71
2023/05/12 06:37:37;;;;;;;8.37;2.90;;;20.20;99.90;;;;;;5058701;28;20269;-71
2023/05/12 06:40:05;;;;;;;7.87;3.43;;;20.10;99.90;;;;;;5059085;28;20210;-71
2023/05/12 06:42:31;;;;;;;6.23;3.53;;;20.20;99.90;;;;;;5072404;28;20179;-71
2023/05/12 06:44:59;;;;;;;4.63;3.20;;;20.30;99.90;;;;;;5059962;28;20194;-71
2023/05/12 06:47:25;;;;;;;8.23;3.40;;;20.30;99.90;;;;;;5058266;28;20217;-71
2023/05/12 06:49:52;;;;;;;24.00;3.90;;;20.40;99.90;;;;;;5055943;28;20203;-72
2023/05/12 06:52:19;;;;;;;8.13;3.00;;;20.40;99.90;;;;;;5060348;28;20198;-71
2023/05/12 06:54:45;;;;;;;6.20;3.43;;;20.50;99.90;;;;;;5073065;28;20190;-72
2023/05/12 06:57:11;;;;;;;5.43;3.20;;;20.50;99.90;;;;;;5074679;28;20670;-72
2023/05/12 06:59:38;;;;;;;9.27;3.30;;;20.60;99.90;;;;;;5058536;28;20804;-72
2023/05/12 07:02:04;;;;;;;4.57;2.90;;;20.70;99.90;;;;;;5058957;28;20889;-71
2023/05/12 07:29:44;;;;;;;6.38;2.28;;;20.90;99.90;;;;;;5065080;27;21153;-71
2023/05/12 07:32:11;;;;;;;4.85;2.40;;;21.60;99.90;;;;;;5048736;28;20202;-71
2023/05/12 07:34:37;;;;;;;3.10;2.20;;;21.70;99.90;;;;;;5063434;28;20186;-71
2023/05/12 07:37:05;;;;;;;6.47;2.00;;;21.80;99.90;;;;;;5050786;28;20918;-71
2023/05/12 07:39:31;;;;;;;6.78;1.80;;;21.90;99.90;;;;;;5065072;28;20196;-71
2023/05/12 07:41:58;;;;;;;41.80;3.47;;;22.00;99.90;;;;;;5055295;28;20274;-70
2023/05/12 07:44:25;;;;;;;5.57;2.57;;;22.00;99.90;;;;;;5069050;28;20203;-71
2023/05/12 07:46:52;;;;;;;4.73;2.17;;;22.10;99.90;;;;;;5065615;28;20236;-71
2023/05/12 07:49:18;;;;;;;5.70;2.00;;;22.20;99.90;;;;;;5053437;28;20637;-71
2023/05/12 07:51:44;;;;;;;2.17;1.75;;;22.30;99.90;;;;;;5043528;28;20213;-71
2023/05/12 07:54:11;;;;;;;3.13;2.20;;;22.30;99.90;;;;;;5042577;28;20191;-71
2023/05/12 07:56:37;;;;;;;5.93;2.50;;;22.40;99.90;;;;;;5037760;28;20278;-71
2023/05/12 07:59:03;;;;;;;4.17;1.80;;;22.50;99.90;;;;;;5056581;28;20183;-71
2023/05/12 08:01:29;;;;;;;4.72;2.22;;;22.50;99.90;;;;;;5049078;28;20274;-71
2023/05/12 08:03:56;;;;;;;5.03;2.40;;;22.50;99.90;;;;;;5069465;28;20724;-71
2023/05/12 08:06:22;;;;;;;6.40;2.92;;;22.70;99.90;;;;;;5064535;28;20733;-71
2023/05/12 08:08:48;;;;;;;4.45;2.88;;;22.90;99.90;;;;;;5056017;28;20210;-71
2023/05/12 08:11:15;;;;;;;8.35;3.10;;;23.10;99.90;;;;;;5066964;28;20665;-71
2023/05/12 08:13:41;;;;;;;10.35;3.08;;;23.10;99.90;;;;;;5059890;28;20178;-71
2023/05/12 08:16:07;;;;;;;6.95;2.80;;;23.20;99.90;;;;;;5072456;28;20654;-71
2023/05/12 08:18:34;;;;;;;7.53;3.42;;;23.30;99.90;;;;;;5050869;28;20226;-71
2023/05/12 08:21:00;;;;;;;6.28;3.00;;;23.40;99.90;;;;;;5055340;28;20202;-71
2023/05/12 08:23:26;;;;;;;8.40;3.90;;;23.50;99.90;;;;;;5050395;28;20260;-71
2023/05/12 08:25:52;;;;;;;6.43;3.47;;;23.60;99.90;;;;;;5051329;28;20251;-71
2023/05/12 08:28:18;;;;;;;9.65;3.58;;;23.60;99.90;;;;;;5055626;28;20705;-71
2023/05/12 08:30:45;;;;;;;9.63;2.90;;;23.80;99.90;;;;;;5043104;28;20179;-71
2023/05/12 08:33:12;;;;;;;11.25;4.05;;;23.80;99.90;;;;;;5039768;28;20192;-71
2023/05/12 08:35:38;;;;;;;6.32;4.15;;;24.00;99.90;;;;;;5034508;28;20190;-71
2023/05/12 08:38:05;;;;;;;9.18;4.32;;;24.00;99.90;;;;;;5054915;28;20186;-71
2023/05/12 08:40:46;;;;;;;11.07;4.13;;;24.10;99.90;;;;;;5038900;28;20267;-71
2023/05/12 08:43:28;;;;;;;11.30;3.97;;;24.10;99.90;;;;;;5053453;28;20276;-71
2023/05/12 08:45:57;;;;;;;11.18;3.90;;;24.20;99.90;;;;;;5033775;28;20197;-71
2023/05/12 08:48:28;;;;;;;16.98;4.43;;;24.20;99.90;;;;;;5052206;28;20202;-71
2023/05/12 08:50:56;;;;;;;9.10;4.00;;;24.30;99.90;;;;;;5052451;28;20179;-71
2023/05/12 08:53:26;;;;;;;10.43;5.03;;;24.50;99.90;;;;;;5054197;28;20180;-71
2023/05/12 08:55:54;;;;;;;13.60;4.95;;;24.60;99.90;;;;;;5058739;28;20191;-71
2023/05/12 08:58:21;;;;;;;17.55;5.00;;;24.60;99.90;;;;;;5038313;28;20318;-71
2023/05/12 09:00:50;;;;;;;11.68;4.70;;;24.60;99.90;;;;;;5036326;28;20545;-71
2023/05/12 09:03:20;;;;;;;9.52;4.78;;;24.60;99.90;;;;;;5037778;28;20191;-71
2023/05/12 10:13:15;;;;;;;9.73;5.00;;;25.90;99.90;;;;;;5041765;28;20591;-71
2023/05/12 10:15:43;;;;;;;12.73;5.20;;;25.90;99.90;;;;;;5021749;28;20212;-71
2023/05/12 10:18:11;;;;;;;12.57;5.65;;;25.80;99.90;;;;;;5028338;28;20194;-71
2023/05/12 10:20:40;;;;;;;15.77;5.82;;;25.80;99.90;;;;;;5036758;28;20886;-71
2023/05/12 10:23:08;;;;;;;11.40;5.22;;;25.80;99.90;;;;;;5046740;28;20250;-71
2023/05/12 10:25:35;;;;;;;15.82;6.20;;;25.90;99.90;;;;;;5038707;28;20188;-71
2023/05/12 10:28:02;;;;;;;12.63;4.93;;;25.90;99.90;;;;;;5038505;28;20200;-71
2023/05/12 10:30:30;;;;;;;9.68;4.65;;;25.80;99.90;;;;;;5033686;28;20183;-71
2023/05/12 10:32:56;;;;;;;13.10;4.93;;;25.80;99.90;;;;;;5056245;28;20260;-71
2023/05/12 10:35:33;;;;;;;12.80;5.15;;;25.60;99.90;;;;;;5042146;28;20189;-71
2023/05/12 10:38:10;;;;;;;11.27;4.97;;;25.50;99.90;;;;;;5031629;28;20515;-71
2023/05/12 10:40:58;;;;;;;14.43;5.30;;;25.50;99.90;;;;;;5036249;28;20680;-71
2023/05/12 10:43:27;;;;;;;14.55;5.80;;;25.50;99.90;;;;;;5041492;28;20263;-71
2023/05/12 10:46:12;;;;;;;11.77;4.57;;;25.60;99.90;;;;;;5026871;28;20555;-71
2023/05/12 10:48:58;;;;;;;17.63;5.72;;;25.60;99.90;;;;;;5059271;28;20220;-71
2023/05/12 10:51:48;;;;;;;12.70;5.47;;;25.50;99.90;;;;;;5033643;28;20204;-71
2023/05/12 10:54:24;;;;;;;15.02;5.28;;;25.40;99.90;;;;;;5031066;28;20611;-71
2023/05/12 10:56:52;;;;;;;15.93;5.75;;;25.30;99.90;;;;;;5064417;28;20264;-71
2023/05/12 10:59:22;;;;;;;19.55;4.68;;;25.10;99.90;;;;;;5031755;28;20188;-71
2023/05/12 11:02:02;;;;;;;8.82;3.90;;;25.20;99.90;;;;;;5030434;28;20188;-71
2023/05/12 11:05:01;;;;;;;13.82;5.40;;;25.20;99.90;;;;;;5034841;28;20199;-70
2023/05/12 11:07:31;;;;;;;11.20;4.63;;;25.20;99.90;;;;;;5032803;28;20202;-70
2023/05/12 11:10:01;;;;;;;14.18;4.90;;;25.40;99.90;;;;;;5032690;28;20267;-71
2023/05/12 11:12:32;;;;;;;9.52;4.80;;;25.30;99.90;;;;;;5059474;28;20626;-71
2023/05/12 11:15:01;;;;;;;13.88;4.65;;;25.30;99.90;;;;;;5023739;28;20223;-71
2023/05/12 11:17:28;;;;;;;12.13;4.68;;;25.40;99.90;;;;;;5019478;28;20674;-70
2023/05/12 11:19:55;;;;;;;13.93;4.43;;;25.30;99.90;;;;;;5028354;28;20752;-71
2023/05/12 11:22:22;;;;;;;12.10;5.00;;;25.20;99.90;;;;;;5030078;28;20211;-71
2023/05/12 11:24:51;;;;;;;10.00;3.95;;;25.10;99.90;;;;;;5030363;28;20275;-71
2023/05/12 11:27:19;;;;;;;12.05;4.53;;;25.10;99.90;;;;;;5046858;28;20250;-71
2023/05/12 11:30:03;;;;;;;10.38;4.07;;;25.10;99.90;;;;;;5018738;28;20200;-71
2023/05/12 11:32:29;;;;;;;18.25;4.60;;;25.10;99.90;;;;;;5015411;28;20724;-71
2023/05/12 11:35:06;;;;;;;13.20;4.38;;;25.00;99.90;;;;;;5024624;28;20219;-71
2023/05/12 11:37:38;;;;;;;11.82;4.43;;;25.00;99.90;;;;;;5039831;28;20191;-71
2023/05/12 11:40:13;;;;;;;10.20;4.47;;;24.90;99.90;;;;;;5021918;28;20378;-71
2023/05/12 11:42:41;;;;;;;14.38;4.20;;;25.00;99.90;;;;;;5046951;28;20192;-71
2023/05/12 11:45:27;;;;;;;13.68;5.03;;;24.90;99.90;;;;;;5050282;28;20198;-71
2023/05/12 11:48:10;;;;;;;9.43;4.88;;;24.90;99.90;;;;;;5022070;28;20189;-71
2023/05/12 11:50:43;;;;;;;13.70;4.20;;;24.80;99.90;;;;;;5011879;28;20203;-71
2023/05/12 11:53:13;;;;;;;11.07;4.65;;;24.80;99.90;;;;;;5020911;28;20180;-71
2023/05/12 11:55:59;;;;;;;11.85;4.15;;;24.70;99.90;;;;;;5017701;28;20212;-71
2023/05/12 11:58:29;;;;;;;13.07;4.70;;;24.70;99.90;;;;;;5021118;28;20200;-71
2023/05/12 12:00:56;;;;;;;12.20;4.97;;;24.70;99.90;;;;;;5033303;28;20856;-71
2023/05/12 12:03:24;;;;;;;12.82;4.65;;;24.70;99.90;;;;;;5014716;28;20283;-71
2023/05/12 12:06:01;;;;;;;9.48;4.28;;;24.70;99.90;;;;;;5015585;28;20188;-71
2023/05/12 12:08:27;;;;;;;11.38;4.97;;;24.80;99.90;;;;;;5017150;28;20208;-70
2023/05/12 12:10:53;;;;;;;19.33;4.55;;;24.70;99.90;;;;;;5028096;28;20220;-71
2023/05/12 12:13:25;;;;;;;14.05;4.53;;;24.60;99.90;;;;;;5046488;28;20635;-71
2023/05/12 12:15:52;;;;;;;11.00;4.35;;;24.50;99.90;;;;;;5023478;28;20176;-70
2023/05/12 12:18:18;;;;;;;12.82;4.63;;;24.50;99.90;;;;;;5015894;28;20262;-71
2023/05/12 12:20:46;;;;;;;11.80;5.20;;;24.50;99.90;;;;;;5038723;28;20185;-70
2023/05/12 12:23:12;;;;;;;15.80;5.10;;;24.40;99.90;;;;;;5017378;28;20196;-71
2023/05/12 12:25:38;;;;;;;13.80;5.10;;;24.40;99.90;;;;;;5015256;28;20224;-71
2023/05/12 12:28:05;;;;;;;17.98;5.05;;;24.40;99.90;;;;;;5017327;28;20173;-71
2023/05/12 12:30:31;;;;;;;16.55;4.50;;;24.40;99.90;;;;;;5016911;28;20546;-71
2023/05/12 12:32:57;;;;;;;17.77;4.82;;;24.40;99.90;;;;;;5020718;28;20291;-70
2023/05/12 12:35:23;;;;;;;12.02;4.80;;;24.30;99.90;;;;;;5012471;28;20181;-71
2023/05/12 12:37:50;;;;;;;17.67;4.78;;;24.30;99.90;;;;;;5041798;28;20233;-71
2023/05/12 12:40:20;;;;;;;12.88;5.30;;;24.20;99.90;;;;;;5042495;28;20181;-71
2023/05/12 12:42:46;;;;;;;19.88;4.35;;;24.30;99.90;;;;;;5041811;28;20886;-71
2023/05/12 12:45:13;;;;;;;15.10;4.63;;;24.40;99.90;;;;;;5018707;28;20635;-71
2023/05/12 12:47:39;;;;;;;7.53;4.28;;;24.40;99.90;;;;;;5021765;28;20220;-71
2023/05/12 12:50:08;;;;;;;10.40;4.78;;;24.40;99.90;;;;;;5018987;28;20791;-71
2023/05/12 12:52:37;;;;;;;13.63;4.57;;;24.30;99.90;;;;;;5015535;28;20253;-71
2023/05/12 12:55:07;;;;;;;12.15;4.35;;;24.30;99.90;;;;;;5044797;28;20219;-71
2023/05/12 12:57:33;;;;;;;12.73;4.82;;;24.30;99.90;;;;;;5033947;28;20775;-71
2023/05/12 13:00:00;;;;;;;11.45;4.47;;;24.30;99.90;;;;;;5008631;28;20192;-71
2023/05/12 13:02:27;;;;;;;16.48;5.03;;;24.30;99.90;;;;;;5015686;28;20249;-71
2023/05/12 13:04:53;;;;;;;10.93;4.43;;;24.30;99.90;;;;;;5031813;28;20322;-70
2023/05/12 13:07:19;;;;;;;10.60;3.90;;;24.20;99.90;;;;;;5013972;28;20185;-71
2023/05/12 13:09:45;;;;;;;10.95;4.00;;;24.10;99.90;;;;;;5018797;28;20184;-71
2023/05/12 13:12:12;;;;;;;13.77;4.72;;;24.10;99.90;;;;;;5044683;28;20208;-71
2023/05/12 13:14:38;;;;;;;8.13;4.25;;;24.00;99.90;;;;;;5013992;28;20184;-71
2023/05/12 13:17:04;;;;;;;11.77;4.43;;;24.10;99.90;;;;;;5042704;28;20185;-71
2023/05/12 13:19:31;;;;;;;9.48;4.15;;;24.10;99.90;;;;;;5018437;28;20184;-71
2023/05/12 13:21:57;;;;;;;16.63;5.00;;;24.10;99.90;;;;;;5017970;28;20193;-70
2023/05/12 13:24:23;;;;;;;16.15;5.18;;;24.10;99.90;;;;;;5012962;28;20516;-70
2023/05/12 13:26:50;;;;;;;11.75;4.75;;;24.10;99.90;;;;;;5032497;28;20285;-70
2023/05/12 13:29:16;;;;;;;10.98;4.78;;;24.10;99.90;;;;;;5021890;28;20651;-70
2023/05/12 13:31:44;;;;;;;10.32;4.78;;;24.10;99.90;;;;;;5039302;28;20552;-71
2023/05/12 13:34:11;;;;;;;13.57;5.18;;;24.00;99.90;;;;;;5040393;28;20195;-71
2023/05/12 13:36:37;;;;;;;16.15;5.20;;;24.10;99.90;;;;;;5037549;28;20543;-71
2023/05/12 13:39:04;;;;;;;12.25;5.20;;;24.10;99.90;;;;;;5013230;28;20187;-70
2023/05/12 13:41:30;;;;;;;11.63;5.15;;;24.00;99.90;;;;;;5028724;28;20205;-70
2023/05/12 13:43:56;;;;;;;13.20;5.13;;;23.90;99.90;;;;;;5013165;28;20235;-70
2023/05/12 13:46:23;;;;;;;10.63;5.18;;;23.90;99.90;;;;;;5012210;28;20276;-70
2023/05/12 13:48:51;;;;;;;13.30;5.60;;;23.80;99.90;;;;;;5009808;28;20216;-70
2023/05/12 13:51:18;;;;;;;21.05;5.28;;;23.80;99.90;;;;;;5039565;28;20291;-71
2023/05/12 13:53:45;;;;;;;13.90;5.60;;;23.70;99.90;;;;;;5017543;28;20180;-71
2023/05/12 13:56:12;;;;;;;16.50;5.53;;;23.60;99.90;;;;;;5016539;28;20215;-71
2023/05/12 13:58:38;;;;;;;11.93;5.65;;;23.60;99.90;;;;;;5015873;28;20199;-71
2023/05/12 14:01:05;;;;;;;14.65;5.88;;;23.60;99.90;;;;;;5006339;28;20195;-71
2023/05/12 14:03:31;;;;;;;12.70;5.75;;;23.50;99.90;;;;;;5013856;28;20222;-71
2023/05/12 14:05:57;;;;;;;11.48;5.13;;;23.40;99.90;;;;;;5016517;28;20571;-71
2023/05/12 14:08:23;;;;;;;13.45;5.20;;;23.30;99.90;;;;;;5015581;28;20188;-71
2023/05/12 14:10:50;;;;;;;15.00;5.33;;;23.30;99.90;;;;;;5049026;28;20212;-71
2023/05/12 14:13:45;;;;;;;14.63;5.85;;;23.20;99.90;;;;;;5017964;28;20550;-71
2023/05/12 14:16:12;;;;;;;12.20;5.43;;;23.10;99.90;;;;;;5042722;28;20189;-71
2023/05/12 14:18:39;;;;;;;14.73;6.30;;;23.10;99.90;;;;;;5013669;28;20224;-71